sensor_id;sensor_type;location;lat;lon;timestamp;pressure;altitude;pressure_sealevel;temperature;humidity
9889;BME280;4983;42.112;24.738;2023-11-19T00:01:36;99388.38;;;7.27;84.75
9889;BME280;4983;42.112;24.738;2023-11-19T00:04:04;99389.44;;;7.35;85.08
9889;BME280;4983;42.112;24.738;2023-11-19T00:06:31;99387.63;;;7.36;84.34
9889;BME280;4983;42.112;24.738;2023-11-19T00:08:58;99382.34;;;7.34;84.99
9889;BME280;4983;42.112;24.738;2023-11-19T00:11:25;99397.16;;;7.29;84.51
9889;BME280;4983;42.112;24.738;2023-11-19T00:13:54;99392.78;;;7.28;84.60
9889;BME280;4983;42.112;24.738;2023-11-19T00:16:21;99387.47;;;7.37;83.54
9889;BME280;4983;42.112;24.738;2023-11-19T00:18:47;99375.59;;;7.40;83.30
9889;BME280;4983;42.112;24.738;2023-11-19T00:21:15;99378.28;;;7.40;83.47
9889;BME280;4983;42.112;24.738;2023-11-19T00:23:42;99370.06;;;7.41;84.17
9889;BME280;4983;42.112;24.738;2023-11-19T00:26:09;99366.78;;;7.38;83.74
9889;BME280;4983;42.112;24.738;2023-11-19T00:28:36;99372.41;;;7.35;84.04
9889;BME280;4983;42.112;24.738;2023-11-19T00:31:06;99384.19;;;7.34;84.55
9889;BME280;4983;42.112;24.738;2023-11-19T00:33:33;99406.00;;;7.31;84.49
9889;BME280;4983;42.112;24.738;2023-11-19T00:36:00;99407.69;;;7.32;84.46
9889;BME280;4983;42.112;24.738;2023-11-19T00:38:28;99403.88;;;7.34;84.77
9889;BME280;4983;42.112;24.738;2023-11-19T00:40:56;99403.88;;;7.34;84.54
9889;BME280;4983;42.112;24.738;2023-11-19T00:43:22;99414.25;;;7.39;85.03
9889;BME280;4983;42.112;24.738;2023-11-19T00:45:49;99404.19;;;7.41;84.22
9889;BME280;4983;42.112;24.738;2023-11-19T00:48:18;99405.47;;;7.37;85.10
9889;BME280;4983;42.112;24.738;2023-11-19T00:50:45;99412.69;;;7.36;84.87
9889;BME280;4983;42.112;24.738;2023-11-19T00:53:12;99413.53;;;7.37;84.67
9889;BME280;4983;42.112;24.738;2023-11-19T00:55:39;99405.31;;;7.38;84.29
9889;BME280;4983;42.112;24.738;2023-11-19T00:58:06;99414.53;;;7.36;84.94
9889;BME280;4983;42.112;24.738;2023-11-19T01:00:33;99419.91;;;7.36;85.16
9889;BME280;4983;42.112;24.738;2023-11-19T01:03:00;99432.63;;;7.34;84.94
9889;BME280;4983;42.112;24.738;2023-11-19T01:05:29;99422.72;;;7.34;84.65
9889;BME280;4983;42.112;24.738;2023-11-19T01:07:56;99433.88;;;7.30;85.12
9889;BME280;4983;42.112;24.738;2023-11-19T01:10:24;99420.34;;;7.41;85.44
9889;BME280;4983;42.112;24.738;2023-11-19T01:12:51;99431.91;;;7.32;85.29
9889;BME280;4983;42.112;24.738;2023-11-19T01:15:18;99436.59;;;7.30;85.40
9889;BME280;4983;42.112;24.738;2023-11-19T01:17:46;99428.63;;;7.28;85.72
9889;BME280;4983;42.112;24.738;2023-11-19T01:20:13;99431.03;;;7.31;85.86
9889;BME280;4983;42.112;24.738;2023-11-19T01:22:41;99424.59;;;7.23;85.65
9889;BME280;4983;42.112;24.738;2023-11-19T01:25:09;99437.94;;;7.24;86.18
9889;BME280;4983;42.112;24.738;2023-11-19T01:27:36;99468.91;;;7.19;86.22
9889;BME280;4983;42.112;24.738;2023-11-19T01:30:03;99450.19;;;7.17;87.35
9889;BME280;4983;42.112;24.738;2023-11-19T01:32:31;99454.72;;;7.17;86.98
9889;BME280;4983;42.112;24.738;2023-11-19T01:34:58;99456.94;;;7.12;87.87
9889;BME280;4983;42.112;24.738;2023-11-19T01:37:26;99449.00;;;7.10;87.61
9889;BME280;4983;42.112;24.738;2023-11-19T01:39:54;99472.13;;;7.13;87.99
9889;BME280;4983;42.112;24.738;2023-11-19T01:42:21;99449.72;;;7.12;87.40
9889;BME280;4983;42.112;24.738;2023-11-19T01:44:57;99459.19;;;7.07;88.25
9889;BME280;4983;42.112;24.738;2023-11-19T01:47:25;99458.06;;;7.09;88.03
9889;BME280;4983;42.112;24.738;2023-11-19T01:49:53;99449.00;;;7.10;88.05
9889;BME280;4983;42.112;24.738;2023-11-19T01:52:20;99453.66;;;7.08;88.21
9889;BME280;4983;42.112;24.738;2023-11-19T01:54:47;99451.09;;;7.07;88.31
9889;BME280;4983;42.112;24.738;2023-11-19T01:57:16;99446.44;;;7.09;88.29
9889;BME280;4983;42.112;24.738;2023-11-19T01:59:44;99447.03;;;7.12;88.08
9889;BME280;4983;42.112;24.738;2023-11-19T02:02:11;99455.75;;;7.05;88.31
9889;BME280;4983;42.112;24.738;2023-11-19T02:04:38;99464.09;;;7.02;88.61
9889;BME280;4983;42.112;24.738;2023-11-19T02:07:06;99466.38;;;7.06;88.12
9889;BME280;4983;42.112;24.738;2023-11-19T02:09:34;99468.19;;;7.06;89.18
9889;BME280;4983;42.112;24.738;2023-11-19T02:12:01;99475.69;;;7.02;89.52
9889;BME280;4983;42.112;24.738;2023-11-19T02:14:30;99467.38;;;7.05;89.67
9889;BME280;4983;42.112;24.738;2023-11-19T02:16:57;99478.63;;;6.99;90.32
9889;BME280;4983;42.112;24.738;2023-11-19T02:19:24;99469.84;;;6.97;89.69
9889;BME280;4983;42.112;24.738;2023-11-19T02:21:52;99497.47;;;6.99;89.84
9889;BME280;4983;42.112;24.738;2023-11-19T02:24:22;99470.81;;;6.96;89.96
9889;BME280;4983;42.112;24.738;2023-11-19T02:26:58;99467.66;;;6.91;90.12
9889;BME280;4983;42.112;24.738;2023-11-19T02:29:27;99476.56;;;6.92;90.29
9889;BME280;4983;42.112;24.738;2023-11-19T02:31:54;99492.34;;;6.85;90.56
9889;BME280;4983;42.112;24.738;2023-11-19T02:34:22;99487.59;;;6.89;90.32
9889;BME280;4983;42.112;24.738;2023-11-19T02:36:48;99489.03;;;6.93;89.62
9889;BME280;4983;42.112;24.738;2023-11-19T02:39:15;99488.31;;;6.91;89.89
9889;BME280;4983;42.112;24.738;2023-11-19T02:41:46;99481.94;;;6.92;89.29
9889;BME280;4983;42.112;24.738;2023-11-19T02:44:16;99475.47;;;6.94;89.42
9889;BME280;4983;42.112;24.738;2023-11-19T02:46:45;99471.78;;;6.95;88.74
9889;BME280;4983;42.112;24.738;2023-11-19T02:49:14;99480.84;;;6.94;88.96
9889;BME280;4983;42.112;24.738;2023-11-19T02:51:40;99481.31;;;6.99;88.68
9889;BME280;4983;42.112;24.738;2023-11-19T02:54:07;99482.44;;;6.97;88.29
9889;BME280;4983;42.112;24.738;2023-11-19T02:56:35;99479.25;;;7.03;88.67
9889;BME280;4983;42.112;24.738;2023-11-19T02:59:04;99489.28;;;7.01;88.01
9889;BME280;4983;42.112;24.738;2023-11-19T03:01:40;99478.25;;;7.04;88.00
9889;BME280;4983;42.112;24.738;2023-11-19T03:04:10;99470.69;;;6.98;87.84
9889;BME280;4983;42.112;24.738;2023-11-19T03:06:38;99466.03;;;7.00;87.78
9889;BME280;4983;42.112;24.738;2023-11-19T03:09:06;99466.16;;;6.98;88.34
9889;BME280;4983;42.112;24.738;2023-11-19T03:11:36;99456.53;;;6.96;88.36
9889;BME280;4983;42.112;24.738;2023-11-19T03:14:03;99454.06;;;6.93;87.64
9889;BME280;4983;42.112;24.738;2023-11-19T03:16:30;99447.69;;;6.94;87.52
9889;BME280;4983;42.112;24.738;2023-11-19T03:18:58;99451.13;;;6.96;88.07
9889;BME280;4983;42.112;24.738;2023-11-19T03:21:29;99455.06;;;6.92;87.53
9889;BME280;4983;42.112;24.738;2023-11-19T03:23:56;99458.94;;;6.99;87.62
9889;BME280;4983;42.112;24.738;2023-11-19T03:26:26;99464.47;;;6.97;86.92
9889;BME280;4983;42.112;24.738;2023-11-19T03:28:53;99457.22;;;6.98;86.90
9889;BME280;4983;42.112;24.738;2023-11-19T03:31:20;99464.09;;;7.02;87.11
9889;BME280;4983;42.112;24.738;2023-11-19T03:33:46;99463.09;;;7.03;86.75
9889;BME280;4983;42.112;24.738;2023-11-19T03:36:13;99445.84;;;7.05;86.23
9889;BME280;4983;42.112;24.738;2023-11-19T03:38:42;99455.25;;;7.00;85.99
9889;BME280;4983;42.112;24.738;2023-11-19T03:41:11;99446.22;;;7.01;86.24
9889;BME280;4983;42.112;24.738;2023-11-19T03:43:39;99451.63;;;7.01;85.97
9889;BME280;4983;42.112;24.738;2023-11-19T03:46:16;99453.72;;;6.97;86.42
9889;BME280;4983;42.112;24.738;2023-11-19T03:48:43;99452.25;;;6.93;86.80
9889;BME280;4983;42.112;24.738;2023-11-19T03:51:10;99456.84;;;7.02;85.36
9889;BME280;4983;42.112;24.738;2023-11-19T03:53:42;99442.88;;;7.08;84.71
9889;BME280;4983;42.112;24.738;2023-11-19T03:56:09;99436.91;;;7.05;85.29
9889;BME280;4983;42.112;24.738;2023-11-19T03:58:36;99444.25;;;7.03;85.00
9889;BME280;4983;42.112;24.738;2023-11-19T04:01:05;99424.44;;;7.04;85.18
9889;BME280;4983;42.112;24.738;2023-11-19T04:03:32;99442.78;;;6.99;85.25
9889;BME280;4983;42.112;24.738;2023-11-19T04:05:59;99444.88;;;6.95;85.93
9889;BME280;4983;42.112;24.738;2023-11-19T04:08:26;99462.31;;;6.80;87.10
9889;BME280;4983;42.112;24.738;2023-11-19T04:10:55;99468.44;;;6.71;88.29
9889;BME280;4983;42.112;24.738;2023-11-19T04:13:22;99469.03;;;6.64;89.16
9889;BME280;4983;42.112;24.738;2023-11-19T04:15:50;99481.75;;;6.62;89.06
9889;BME280;4983;42.112;24.738;2023-11-19T04:18:17;99477.84;;;6.66;88.82
9889;BME280;4983;42.112;24.738;2023-11-19T04:20:44;99489.56;;;6.65;89.22
9889;BME280;4983;42.112;24.738;2023-11-19T04:23:10;99489.94;;;6.60;88.88
9889;BME280;4983;42.112;24.738;2023-11-19T04:25:37;99493.00;;;6.67;88.23
9889;BME280;4983;42.112;24.738;2023-11-19T04:28:06;99487.75;;;6.65;88.08
9889;BME280;4983;42.112;24.738;2023-11-19T04:30:33;99492.75;;;6.70;87.29
9889;BME280;4983;42.112;24.738;2023-11-19T04:33:04;99493.50;;;6.72;86.14
9889;BME280;4983;42.112;24.738;2023-11-19T04:35:31;99481.97;;;6.70;86.54
9889;BME280;4983;42.112;24.738;2023-11-19T04:37:58;99490.91;;;6.70;86.56
9889;BME280;4983;42.112;24.738;2023-11-19T04:40:25;99506.78;;;6.73;86.69
9889;BME280;4983;42.112;24.738;2023-11-19T04:42:52;99523.31;;;6.69;86.88
9889;BME280;4983;42.112;24.738;2023-11-19T04:45:20;99494.00;;;6.66;86.48
9889;BME280;4983;42.112;24.738;2023-11-19T04:47:47;99500.31;;;6.65;86.75
9889;BME280;4983;42.112;24.738;2023-11-19T04:50:14;99504.59;;;6.67;86.09
9889;BME280;4983;42.112;24.738;2023-11-19T04:52:40;99504.75;;;6.66;86.26
9889;BME280;4983;42.112;24.738;2023-11-19T04:55:08;99515.25;;;6.58;86.52
9889;BME280;4983;42.112;24.738;2023-11-19T04:57:37;99511.22;;;6.63;86.72
9889;BME280;4983;42.112;24.738;2023-11-19T05:00:04;99512.06;;;6.53;87.18
9889;BME280;4983;42.112;24.738;2023-11-19T05:02:34;99505.63;;;6.44;87.47
9889;BME280;4983;42.112;24.738;2023-11-19T05:05:01;99519.28;;;6.41;87.92
9889;BME280;4983;42.112;24.738;2023-11-19T05:07:30;99515.50;;;6.33;88.08
9889;BME280;4983;42.112;24.738;2023-11-19T05:09:57;99518.06;;;6.34;88.44
9889;BME280;4983;42.112;24.738;2023-11-19T05:12:24;99518.44;;;6.30;87.95
9889;BME280;4983;42.112;24.738;2023-11-19T05:14:51;99509.25;;;6.32;87.95
9889;BME280;4983;42.112;24.738;2023-11-19T05:17:18;99512.56;;;6.36;87.79
9889;BME280;4983;42.112;24.738;2023-11-19T05:19:47;99520.50;;;6.37;87.28
9889;BME280;4983;42.112;24.738;2023-11-19T05:22:14;99508.28;;;6.33;87.36
9889;BME280;4983;42.112;24.738;2023-11-19T05:24:41;99528.44;;;6.39;87.14
9889;BME280;4983;42.112;24.738;2023-11-19T05:27:08;99539.78;;;6.42;86.84
9889;BME280;4983;42.112;24.738;2023-11-19T05:29:36;99550.19;;;6.36;87.16
9889;BME280;4983;42.112;24.738;2023-11-19T05:32:07;99544.69;;;6.37;87.21
9889;BME280;4983;42.112;24.738;2023-11-19T05:34:34;99534.78;;;6.38;86.89
9889;BME280;4983;42.112;24.738;2023-11-19T05:37:02;99541.88;;;6.39;86.92
9889;BME280;4983;42.112;24.738;2023-11-19T05:39:31;99549.69;;;6.31;87.26
9889;BME280;4983;42.112;24.738;2023-11-19T05:41:58;99557.97;;;6.28;87.86
9889;BME280;4983;42.112;24.738;2023-11-19T05:44:25;99550.53;;;6.31;87.39
9889;BME280;4983;42.112;24.738;2023-11-19T05:46:54;99559.84;;;6.27;87.30
9889;BME280;4983;42.112;24.738;2023-11-19T05:49:22;99574.22;;;6.26;87.55
9889;BME280;4983;42.112;24.738;2023-11-19T05:51:49;99581.81;;;6.21;88.27
9889;BME280;4983;42.112;24.738;2023-11-19T05:54:18;99574.59;;;6.22;88.55
9889;BME280;4983;42.112;24.738;2023-11-19T05:56:47;99578.25;;;6.21;88.66
9889;BME280;4983;42.112;24.738;2023-11-19T05:59:14;99583.22;;;6.14;88.86
9889;BME280;4983;42.112;24.738;2023-11-19T06:01:43;99580.06;;;6.09;89.39
9889;BME280;4983;42.112;24.738;2023-11-19T06:04:10;99577.13;;;6.12;89.06
9889;BME280;4983;42.112;24.738;2023-11-19T06:06:37;99563.72;;;6.23;89.58
9889;BME280;4983;42.112;24.738;2023-11-19T06:09:05;99568.50;;;6.31;88.81
9889;BME280;4983;42.112;24.738;2023-11-19T06:11:34;99564.25;;;6.39;88.15
9889;BME280;4983;42.112;24.738;2023-11-19T06:14:01;99551.78;;;6.49;87.43
9889;BME280;4983;42.112;24.738;2023-11-19T06:16:31;99550.44;;;6.55;87.69
9889;BME280;4983;42.112;24.738;2023-11-19T06:18:59;99546.16;;;6.63;87.22
9889;BME280;4983;42.112;24.738;2023-11-19T06:21:27;99566.94;;;6.72;86.88
9889;BME280;4983;42.112;24.738;2023-11-19T06:23:54;99586.25;;;6.77;85.76
9889;BME280;4983;42.112;24.738;2023-11-19T06:26:21;99563.41;;;6.83;85.28
9889;BME280;4983;42.112;24.738;2023-11-19T06:28:50;99585.38;;;6.88;85.42
9889;BME280;4983;42.112;24.738;2023-11-19T06:31:17;99579.38;;;6.95;85.45
9889;BME280;4983;42.112;24.738;2023-11-19T06:33:44;99576.69;;;7.06;84.88
9889;BME280;4983;42.112;24.738;2023-11-19T06:36:13;99579.25;;;7.08;84.93
9889;BME280;4983;42.112;24.738;2023-11-19T06:38:41;99576.56;;;7.19;84.58
9889;BME280;4983;42.112;24.738;2023-11-19T06:41:08;99570.41;;;7.28;83.39
9889;BME280;4983;42.112;24.738;2023-11-19T06:43:37;99569.06;;;7.33;84.30
9889;BME280;4983;42.112;24.738;2023-11-19T06:46:05;99572.69;;;7.43;83.31
9889;BME280;4983;42.112;24.738;2023-11-19T06:48:32;99567.06;;;7.46;81.83
9889;BME280;4983;42.112;24.738;2023-11-19T06:51:00;99552.97;;;7.54;82.09
9889;BME280;4983;42.112;24.738;2023-11-19T06:53:27;99560.50;;;7.71;82.56
9889;BME280;4983;42.112;24.738;2023-11-19T06:55:55;99554.13;;;7.72;81.42
9889;BME280;4983;42.112;24.738;2023-11-19T06:58:23;99541.00;;;7.67;80.29
9889;BME280;4983;42.112;24.738;2023-11-19T07:00:50;99555.81;;;7.73;81.04
9889;BME280;4983;42.112;24.738;2023-11-19T07:03:18;99556.41;;;7.76;80.66
9889;BME280;4983;42.112;24.738;2023-11-19T07:05:46;99555.38;;;7.88;81.81
9889;BME280;4983;42.112;24.738;2023-11-19T07:08:14;99544.47;;;7.90;80.47
9889;BME280;4983;42.112;24.738;2023-11-19T07:10:41;99528.63;;;7.96;79.47
9889;BME280;4983;42.112;24.738;2023-11-19T07:13:09;99518.13;;;7.93;79.82
9889;BME280;4983;42.112;24.738;2023-11-19T07:15:37;99502.88;;;8.03;78.46
9889;BME280;4983;42.112;24.738;2023-11-19T07:18:04;99511.75;;;8.15;79.18
9889;BME280;4983;42.112;24.738;2023-11-19T07:20:32;99490.00;;;8.07;77.90
9889;BME280;4983;42.112;24.738;2023-11-19T07:22:59;99503.03;;;8.22;78.24
9889;BME280;4983;42.112;24.738;2023-11-19T07:25:26;99502.94;;;8.33;78.51
9889;BME280;4983;42.112;24.738;2023-11-19T07:27:53;99513.56;;;8.35;76.81
9889;BME280;4983;42.112;24.738;2023-11-19T07:30:20;99527.25;;;8.43;76.88
9889;BME280;4983;42.112;24.738;2023-11-19T07:32:47;99551.84;;;8.49;76.74
9889;BME280;4983;42.112;24.738;2023-11-19T07:35:14;99557.56;;;8.56;76.41
9889;BME280;4983;42.112;24.738;2023-11-19T07:37:43;99546.34;;;8.60;76.44
9889;BME280;4983;42.112;24.738;2023-11-19T07:40:11;99535.16;;;8.65;75.70
9889;BME280;4983;42.112;24.738;2023-11-19T07:42:38;99538.03;;;8.73;75.26
9889;BME280;4983;42.112;24.738;2023-11-19T07:45:06;99551.56;;;8.82;73.99
9889;BME280;4983;42.112;24.738;2023-11-19T07:47:33;99534.13;;;8.86;73.30
9889;BME280;4983;42.112;24.738;2023-11-19T07:50:02;99539.09;;;8.91;73.69
9889;BME280;4983;42.112;24.738;2023-11-19T07:52:29;99544.81;;;8.97;72.39
9889;BME280;4983;42.112;24.738;2023-11-19T07:54:57;99567.00;;;9.01;72.62
9889;BME280;4983;42.112;24.738;2023-11-19T07:57:24;99560.03;;;8.98;71.21
9889;BME280;4983;42.112;24.738;2023-11-19T07:59:53;99567.53;;;8.95;71.75
9889;BME280;4983;42.112;24.738;2023-11-19T08:02:20;99552.09;;;9.06;72.03
9889;BME280;4983;42.112;24.738;2023-11-19T08:04:50;99561.59;;;9.01;71.08
9889;BME280;4983;42.112;24.738;2023-11-19T08:07:18;99547.41;;;9.17;71.49
9889;BME280;4983;42.112;24.738;2023-11-19T08:09:46;99546.44;;;9.18;69.94
9889;BME280;4983;42.112;24.738;2023-11-19T08:12:14;99553.81;;;9.26;69.37
9889;BME280;4983;42.112;24.738;2023-11-19T08:14:43;99560.09;;;9.26;69.96
9889;BME280;4983;42.112;24.738;2023-11-19T08:17:10;99573.47;;;9.37;70.71
9889;BME280;4983;42.112;24.738;2023-11-19T08:19:38;99555.47;;;9.57;70.13
9889;BME280;4983;42.112;24.738;2023-11-19T08:22:06;99591.03;;;9.90;70.63
9889;BME280;4983;42.112;24.738;2023-11-19T08:24:37;99565.41;;;9.56;68.27
9889;BME280;4983;42.112;24.738;2023-11-19T08:27:04;99575.50;;;9.54;67.67
9889;BME280;4983;42.112;24.738;2023-11-19T08:29:32;99574.69;;;9.82;68.68
9889;BME280;4983;42.112;24.738;2023-11-19T08:32:01;99556.69;;;9.24;68.68
9889;BME280;4983;42.112;24.738;2023-11-19T08:34:29;99580.91;;;9.05;68.83
9889;BME280;4983;42.112;24.738;2023-11-19T08:36:57;99584.94;;;9.20;68.79
9889;BME280;4983;42.112;24.738;2023-11-19T08:39:24;99579.69;;;9.19;69.14
9889;BME280;4983;42.112;24.738;2023-11-19T08:41:51;99579.31;;;9.42;68.27
9889;BME280;4983;42.112;24.738;2023-11-19T08:44:19;99553.72;;;9.46;67.50
9889;BME280;4983;42.112;24.738;2023-11-19T08:46:48;99552.31;;;9.42;67.74
9889;BME280;4983;42.112;24.738;2023-11-19T08:49:16;99550.47;;;9.52;67.09
9889;BME280;4983;42.112;24.738;2023-11-19T08:51:43;99552.59;;;9.39;66.74
9889;BME280;4983;42.112;24.738;2023-11-19T08:54:11;99564.56;;;9.56;67.41
9889;BME280;4983;42.112;24.738;2023-11-19T08:56:38;99554.03;;;9.81;66.84
9889;BME280;4983;42.112;24.738;2023-11-19T08:59:05;99555.03;;;9.52;67.09
9889;BME280;4983;42.112;24.738;2023-11-19T09:01:32;99563.72;;;9.74;67.85
9889;BME280;4983;42.112;24.738;2023-11-19T09:04:00;99560.00;;;9.75;65.20
9889;BME280;4983;42.112;24.738;2023-11-19T09:06:27;99556.16;;;9.59;65.88
9889;BME280;4983;42.112;24.738;2023-11-19T09:08:54;99549.06;;;9.58;66.99
9889;BME280;4983;42.112;24.738;2023-11-19T09:11:26;99541.78;;;9.58;66.57
9889;BME280;4983;42.112;24.738;2023-11-19T09:13:53;99544.97;;;9.92;66.06
9889;BME280;4983;42.112;24.738;2023-11-19T09:16:20;99543.06;;;10.02;65.23
9889;BME280;4983;42.112;24.738;2023-11-19T09:18:47;99529.44;;;9.94;65.85
9889;BME280;4983;42.112;24.738;2023-11-19T09:21:16;99545.53;;;9.95;64.80
9889;BME280;4983;42.112;24.738;2023-11-19T09:23:43;99532.84;;;9.77;65.26
9889;BME280;4983;42.112;24.738;2023-11-19T09:26:10;99542.09;;;9.93;66.30
9889;BME280;4983;42.112;24.738;2023-11-19T09:28:37;99547.78;;;10.19;66.39
9889;BME280;4983;42.112;24.738;2023-11-19T09:31:13;99534.81;;;10.41;64.57
9889;BME280;4983;42.112;24.738;2023-11-19T09:33:39;99523.69;;;10.44;63.08
9889;BME280;4983;42.112;24.738;2023-11-19T09:36:08;99516.25;;;10.46;64.38
9889;BME280;4983;42.112;24.738;2023-11-19T09:38:37;99506.66;;;10.15;62.99
9889;BME280;4983;42.112;24.738;2023-11-19T09:41:05;99511.19;;;10.34;63.76
9889;BME280;4983;42.112;24.738;2023-11-19T09:43:34;99493.84;;;10.27;62.35
9889;BME280;4983;42.112;24.738;2023-11-19T09:46:05;99497.13;;;10.21;62.55
9889;BME280;4983;42.112;24.738;2023-11-19T09:48:33;99512.81;;;10.54;63.22
9889;BME280;4983;42.112;24.738;2023-11-19T09:51:04;99516.81;;;10.59;61.82
9889;BME280;4983;42.112;24.738;2023-11-19T09:53:32;99532.50;;;10.56;62.71
9889;BME280;4983;42.112;24.738;2023-11-19T09:56:03;99523.47;;;10.65;61.29
9889;BME280;4983;42.112;24.738;2023-11-19T09:58:30;99521.53;;;10.84;60.65
9889;BME280;4983;42.112;24.738;2023-11-19T10:00:58;99525.53;;;10.53;61.30
9889;BME280;4983;42.112;24.738;2023-11-19T10:03:27;99514.22;;;10.67;60.65
9889;BME280;4983;42.112;24.738;2023-11-19T10:05:57;99527.88;;;10.66;60.08
9889;BME280;4983;42.112;24.738;2023-11-19T10:08:24;99506.44;;;10.45;60.51
9889;BME280;4983;42.112;24.738;2023-11-19T10:10:51;99509.34;;;10.25;61.36
9889;BME280;4983;42.112;24.738;2023-11-19T10:13:26;99522.72;;;10.26;62.44
9889;BME280;4983;42.112;24.738;2023-11-19T10:15:53;99509.72;;;10.39;60.19
9889;BME280;4983;42.112;24.738;2023-11-19T10:18:24;99499.06;;;10.47;60.52
9889;BME280;4983;42.112;24.738;2023-11-19T10:20:51;99498.28;;;10.55;61.14
9889;BME280;4983;42.112;24.738;2023-11-19T10:23:18;99498.56;;;10.61;60.53
9889;BME280;4983;42.112;24.738;2023-11-19T10:25:46;99501.53;;;10.68;60.87
9889;BME280;4983;42.112;24.738;2023-11-19T10:28:15;99477.16;;;10.95;58.76
9889;BME280;4983;42.112;24.738;2023-11-19T10:30:44;99462.47;;;10.70;58.53
9889;BME280;4983;42.112;24.738;2023-11-19T10:33:12;99473.19;;;10.62;58.90
9889;BME280;4983;42.112;24.738;2023-11-19T10:35:53;99468.88;;;10.42;58.68
9889;BME280;4983;42.112;24.738;2023-11-19T10:38:20;99474.97;;;10.44;58.79
9889;BME280;4983;42.112;24.738;2023-11-19T10:40:48;99472.00;;;10.38;58.81
9889;BME280;4983;42.112;24.738;2023-11-19T10:43:15;99459.53;;;10.27;58.78
9889;BME280;4983;42.112;24.738;2023-11-19T10:45:41;99458.72;;;10.54;59.05
9889;BME280;4983;42.112;24.738;2023-11-19T10:48:10;99456.16;;;10.52;59.34
9889;BME280;4983;42.112;24.738;2023-11-19T10:50:39;99445.75;;;10.84;58.85
9889;BME280;4983;42.112;24.738;2023-11-19T10:53:09;99439.97;;;10.70;58.04
9889;BME280;4983;42.112;24.738;2023-11-19T10:55:39;99473.25;;;10.53;58.76
9889;BME280;4983;42.112;24.738;2023-11-19T10:58:07;99447.66;;;10.74;60.02
9889;BME280;4983;42.112;24.738;2023-11-19T11:00:38;99442.91;;;10.86;58.31
9889;BME280;4983;42.112;24.738;2023-11-19T11:03:11;99444.66;;;10.77;59.43
9889;BME280;4983;42.112;24.738;2023-11-19T11:05:42;99440.53;;;10.73;58.47
9889;BME280;4983;42.112;24.738;2023-11-19T11:08:09;99442.78;;;10.78;59.28
9889;BME280;4983;42.112;24.738;2023-11-19T11:10:41;99440.06;;;11.05;56.88
9889;BME280;4983;42.112;24.738;2023-11-19T11:13:09;99428.91;;;11.08;58.14
9889;BME280;4983;42.112;24.738;2023-11-19T11:15:38;99425.84;;;11.03;55.78
9889;BME280;4983;42.112;24.738;2023-11-19T11:18:08;99429.28;;;10.95;57.01
9889;BME280;4983;42.112;24.738;2023-11-19T11:20:37;99458.63;;;11.00;55.44
9889;BME280;4983;42.112;24.738;2023-11-19T11:23:33;99430.25;;;10.77;56.78
9889;BME280;4983;42.112;24.738;2023-11-19T11:26:18;99421.25;;;10.86;56.73
9889;BME280;4983;42.112;24.738;2023-11-19T11:28:56;99417.66;;;10.85;56.98
9889;BME280;4983;42.112;24.738;2023-11-19T11:31:31;99410.75;;;11.00;57.71
9889;BME280;4983;42.112;24.738;2023-11-19T11:34:37;99396.03;;;11.03;56.79
9889;BME280;4983;42.112;24.738;2023-11-19T11:37:13;99402.66;;;10.91;57.13
9889;BME280;4983;42.112;24.738;2023-11-19T11:39:43;99388.75;;;11.03;57.21
9889;BME280;4983;42.112;24.738;2023-11-19T11:42:35;99386.84;;;11.13;57.82
9889;BME280;4983;42.112;24.738;2023-11-19T11:45:04;99383.03;;;10.89;57.25
9889;BME280;4983;42.112;24.738;2023-11-19T11:48:05;99382.31;;;11.04;58.39
9889;BME280;4983;42.112;24.738;2023-11-19T11:50:35;99371.88;;;11.09;57.68
9889;BME280;4983;42.112;24.738;2023-11-19T11:53:20;99361.38;;;11.24;57.88
9889;BME280;4983;42.112;24.738;2023-11-19T11:55:59;99372.50;;;11.38;57.94
9889;BME280;4983;42.112;24.738;2023-11-19T11:58:32;99385.91;;;11.40;59.06
9889;BME280;4983;42.112;24.738;2023-11-19T12:01:03;99374.66;;;11.17;57.55
9889;BME280;4983;42.112;24.738;2023-11-19T12:03:32;99371.59;;;11.12;59.69
9889;BME280;4983;42.112;24.738;2023-11-19T12:06:00;99370.56;;;11.48;57.61
9889;BME280;4983;42.112;24.738;2023-11-19T12:08:29;99358.72;;;11.49;58.52
9889;BME280;4983;42.112;24.738;2023-11-19T12:10:58;99344.16;;;11.50;58.04
9889;BME280;4983;42.112;24.738;2023-11-19T12:13:44;99351.22;;;11.43;57.48
9889;BME280;4983;42.112;24.738;2023-11-19T12:16:13;99355.03;;;11.33;57.44
9889;BME280;4983;42.112;24.738;2023-11-19T12:18:40;99359.97;;;11.37;58.07
9889;BME280;4983;42.112;24.738;2023-11-19T12:21:10;99356.94;;;11.05;58.22
9889;BME280;4983;42.112;24.738;2023-11-19T12:23:45;99364.75;;;11.26;59.38
9889;BME280;4983;42.112;24.738;2023-11-19T12:26:31;99348.44;;;11.18;58.26
9889;BME280;4983;42.112;24.738;2023-11-19T12:28:58;99356.00;;;11.32;59.30
9889;BME280;4983;42.112;24.738;2023-11-19T12:31:25;99364.91;;;11.42;60.05
9889;BME280;4983;42.112;24.738;2023-11-19T12:33:52;99365.53;;;11.53;60.83
9889;BME280;4983;42.112;24.738;2023-11-19T12:36:20;99348.72;;;11.67;57.85
9889;BME280;4983;42.112;24.738;2023-11-19T12:38:49;99350.19;;;11.44;57.63
9889;BME280;4983;42.112;24.738;2023-11-19T12:41:17;99356.88;;;11.32;59.88
9889;BME280;4983;42.112;24.738;2023-11-19T12:43:47;99358.56;;;11.33;59.80
9889;BME280;4983;42.112;24.738;2023-11-19T12:46:18;99348.97;;;11.39;59.24
9889;BME280;4983;42.112;24.738;2023-11-19T12:48:46;99365.81;;;11.50;59.99
9889;BME280;4983;42.112;24.738;2023-11-19T12:51:14;99364.69;;;11.18;59.01
9889;BME280;4983;42.112;24.738;2023-11-19T12:53:51;99350.56;;;11.06;58.03
9889;BME280;4983;42.112;24.738;2023-11-19T12:56:20;99353.25;;;11.06;60.05
9889;BME280;4983;42.112;24.738;2023-11-19T12:58:47;99355.09;;;11.06;59.69
9889;BME280;4983;42.112;24.738;2023-11-19T13:01:17;99353.56;;;11.21;60.58
9889;BME280;4983;42.112;24.738;2023-11-19T13:03:45;99358.75;;;11.14;59.32
9889;BME280;4983;42.112;24.738;2023-11-19T13:06:14;99358.19;;;11.11;59.73
9889;BME280;4983;42.112;24.738;2023-11-19T13:08:43;99362.28;;;10.97;60.00
9889;BME280;4983;42.112;24.738;2023-11-19T13:11:12;99359.44;;;10.99;61.72
9889;BME280;4983;42.112;24.738;2023-11-19T13:13:54;99355.72;;;11.00;60.18
9889;BME280;4983;42.112;24.738;2023-11-19T13:16:20;99340.19;;;10.84;60.37
9889;BME280;4983;42.112;24.738;2023-11-19T13:18:47;99338.41;;;10.93;61.28
9889;BME280;4983;42.112;24.738;2023-11-19T13:21:14;99348.06;;;11.13;60.38
9889;BME280;4983;42.112;24.738;2023-11-19T13:23:41;99333.59;;;11.04;60.66
9889;BME280;4983;42.112;24.738;2023-11-19T13:26:08;99344.41;;;11.04;61.03